EWG2R EDDH-LIMC
Flight info
| Callsign | EWG2R |
|---|---|
| Flight time | 1h 27m |
| Altitude | 35000 |
| Route | IDEKO7G IDEKO N850 XAROL/N0445F360 DCT BOMBI DCT GIGET DCT ABUKA DCT KRH DCT NATOR/N0449F370 DCT DITON DCT BASGO/N0427F290 Z424 AKASU/N0360F190 Z424 RIXUV |
| Aircraft | A320/M-SDE3FGHIRWY/LB1 |
Departure
| Time | 2026-05-05 17:38 |
|---|---|
| Airport | Hamburg Helmut Schmidt Airport (EDDH) |
Arrival
| Time | 2026-05-05 19:05 |
|---|---|
| Airport | Milan Malpensa International Airport (LIMC) |
| Time | Latitude | Longitude | Altitude | Speed | Heading |
|---|---|---|---|---|---|
| 2026-05-05 17:17 | 53.62810 | 10.00250 | 45 ft | 0 kts | 63° |
| 2026-05-05 17:28 | 53.62801 | 10.00221 | 46 ft | 4 kts | 59° |
| 2026-05-05 17:28 | 53.62786 | 10.00183 | 45 ft | 4 kts | 48° |
| 2026-05-05 17:28 | 53.62767 | 10.00156 | 47 ft | 4 kts | 19° |
| 2026-05-05 17:28 | 53.62750 | 10.00154 | 47 ft | 0 kts | 333° |
| 2026-05-05 17:32 | 53.62754 | 10.00150 | 47 ft | 4 kts | 333° |
| 2026-05-05 17:33 | 53.62813 | 10.00098 | 48 ft | 14 kts | 332° |
| 2026-05-05 17:33 | 53.62887 | 10.00043 | 48 ft | 10 kts | 347° |
| 2026-05-05 17:33 | 53.62913 | 9.99972 | 48 ft | 7 kts | 255° |
| 2026-05-05 17:33 | 53.62897 | 9.99919 | 48 ft | 0 kts | 243° |
| 2026-05-05 17:34 | 53.62896 | 9.99915 | 48 ft | 1 kts | 243° |
| 2026-05-05 17:34 | 53.62883 | 9.99873 | 47 ft | 7 kts | 243° |
| 2026-05-05 17:34 | 53.62870 | 9.99753 | 45 ft | 13 kts | 291° |
| 2026-05-05 17:34 | 53.62895 | 9.99719 | 45 ft | 0 kts | 334° |
| 2026-05-05 17:37 | 53.62903 | 9.99713 | 45 ft | 9 kts | 334° |
| 2026-05-05 17:37 | 53.63160 | 9.99494 | 46 ft | 78 kts | 334° |
| 2026-05-05 17:37 | 53.63828 | 9.98917 | 49 ft | 137 kts | 332° |
| 2026-05-05 17:38 | 53.64806 | 9.98058 | 203 ft | 167 kts | 332° |
| 2026-05-05 17:38 | 53.65829 | 9.97201 | 853 ft | 164 kts | 336° |
| 2026-05-05 17:38 | 53.66862 | 9.96329 | 1465 ft | 171 kts | 336° |
| 2026-05-05 17:38 | 53.67995 | 9.95368 | 1784 ft | 193 kts | 336° |
| 2026-05-05 17:39 | 53.69261 | 9.94290 | 2168 ft | 212 kts | 336° |
| 2026-05-05 17:39 | 53.70554 | 9.93068 | 2903 ft | 216 kts | 322° |
| 2026-05-05 17:39 | 53.71390 | 9.90958 | 3622 ft | 226 kts | 286° |
| 2026-05-05 17:39 | 53.71349 | 9.88179 | 3995 ft | 253 kts | 257° |
| 2026-05-05 17:40 | 53.70825 | 9.85225 | 4535 ft | 269 kts | 252° |
| 2026-05-05 17:40 | 53.70198 | 9.82228 | 5394 ft | 271 kts | 250° |
| 2026-05-05 17:40 | 53.69554 | 9.79242 | 6357 ft | 270 kts | 250° |
| 2026-05-05 17:40 | 53.68917 | 9.76255 | 7231 ft | 270 kts | 251° |
| 2026-05-05 17:41 | 53.68297 | 9.73261 | 8097 ft | 271 kts | 251° |
| 2026-05-05 17:41 | 53.67686 | 9.70236 | 8944 ft | 273 kts | 251° |
| 2026-05-05 17:41 | 53.67081 | 9.67189 | 9781 ft | 275 kts | 252° |
| 2026-05-05 17:41 | 53.66411 | 9.64127 | 10347 ft | 287 kts | 244° |
| 2026-05-05 17:42 | 53.65264 | 9.61216 | 10543 ft | 311 kts | 229° |
| 2026-05-05 17:42 | 53.63556 | 9.58839 | 10956 ft | 326 kts | 212° |
| 2026-05-05 17:42 | 53.61448 | 9.57334 | 11603 ft | 334 kts | 196° |
| 2026-05-05 17:42 | 53.59133 | 9.56721 | 12289 ft | 340 kts | 188° |
| 2026-05-05 17:43 | 53.56770 | 9.56246 | 12987 ft | 343 kts | 188° |
| 2026-05-05 17:43 | 53.54386 | 9.55777 | 13668 ft | 348 kts | 188° |
| 2026-05-05 17:43 | 53.51964 | 9.55305 | 14270 ft | 352 kts | 188° |
| 2026-05-05 17:43 | 53.49527 | 9.54832 | 14885 ft | 354 kts | 188° |
| 2026-05-05 17:44 | 53.47066 | 9.54351 | 15500 ft | 357 kts | 188° |
| 2026-05-05 17:44 | 53.44618 | 9.53866 | 16106 ft | 360 kts | 188° |
| 2026-05-05 17:44 | 53.42121 | 9.53376 | 16697 ft | 363 kts | 188° |
| 2026-05-05 17:44 | 53.39604 | 9.52885 | 17297 ft | 366 kts | 188° |
| 2026-05-05 17:45 | 53.37070 | 9.52388 | 17892 ft | 369 kts | 188° |
| 2026-05-05 17:45 | 53.34514 | 9.51888 | 18458 ft | 371 kts | 188° |
| 2026-05-05 17:45 | 53.31943 | 9.51385 | 18993 ft | 373 kts | 188° |
| 2026-05-05 17:45 | 53.29358 | 9.50877 | 19539 ft | 375 kts | 188° |
| 2026-05-05 17:46 | 53.26760 | 9.50364 | 20086 ft | 377 kts | 188° |
| 2026-05-05 17:46 | 53.24147 | 9.49849 | 20622 ft | 379 kts | 188° |
| 2026-05-05 17:46 | 53.21520 | 9.49337 | 21169 ft | 381 kts | 188° |
| 2026-05-05 17:46 | 53.18878 | 9.48822 | 21714 ft | 383 kts | 188° |
| 2026-05-05 17:47 | 53.16222 | 9.48306 | 22252 ft | 385 kts | 188° |
| 2026-05-05 17:47 | 53.13549 | 9.47787 | 22778 ft | 387 kts | 188° |
| 2026-05-05 17:47 | 53.10866 | 9.47266 | 23280 ft | 389 kts | 189° |
| 2026-05-05 17:47 | 53.08168 | 9.46742 | 23716 ft | 392 kts | 189° |
| 2026-05-05 17:48 | 53.05456 | 9.46214 | 24119 ft | 393 kts | 189° |
| 2026-05-05 17:48 | 53.02730 | 9.45687 | 24512 ft | 395 kts | 189° |
| 2026-05-05 17:48 | 52.99993 | 9.45160 | 24898 ft | 397 kts | 189° |
| 2026-05-05 17:48 | 52.97244 | 9.44618 | 25276 ft | 398 kts | 189° |
| 2026-05-05 17:49 | 52.94491 | 9.44044 | 25653 ft | 400 kts | 190° |
| 2026-05-05 17:49 | 52.91723 | 9.43448 | 26026 ft | 401 kts | 190° |
| 2026-05-05 17:49 | 52.88960 | 9.42846 | 26388 ft | 403 kts | 190° |
| 2026-05-05 17:49 | 52.86163 | 9.42236 | 26747 ft | 404 kts | 190° |
| 2026-05-05 17:50 | 52.83369 | 9.41630 | 27117 ft | 406 kts | 190° |
| 2026-05-05 17:50 | 52.80567 | 9.41026 | 27464 ft | 407 kts | 190° |
| 2026-05-05 17:50 | 52.77752 | 9.40426 | 27796 ft | 409 kts | 190° |
| 2026-05-05 17:50 | 52.74923 | 9.39827 | 28125 ft | 410 kts | 190° |
| 2026-05-05 17:51 | 52.72083 | 9.39222 | 28447 ft | 412 kts | 190° |
| 2026-05-05 17:51 | 52.69234 | 9.38614 | 28756 ft | 414 kts | 190° |
| 2026-05-05 17:51 | 52.66369 | 9.38005 | 29055 ft | 415 kts | 190° |
| 2026-05-05 17:51 | 52.63498 | 9.37398 | 29335 ft | 417 kts | 189° |
| 2026-05-05 17:52 | 52.60619 | 9.36770 | 29616 ft | 418 kts | 190° |
| 2026-05-05 17:52 | 52.57736 | 9.36059 | 29886 ft | 419 kts | 191° |
| 2026-05-05 17:52 | 52.54888 | 9.35298 | 30127 ft | 421 kts | 192° |
| 2026-05-05 17:52 | 52.51961 | 9.34491 | 30377 ft | 421 kts | 192° |
| 2026-05-05 17:53 | 52.49073 | 9.33695 | 30614 ft | 422 kts | 192° |
| 2026-05-05 17:53 | 52.46211 | 9.32918 | 30884 ft | 421 kts | 191° |
| 2026-05-05 17:53 | 52.43322 | 9.32149 | 31225 ft | 419 kts | 191° |
| 2026-05-05 17:53 | 52.40452 | 9.31400 | 31575 ft | 417 kts | 191° |
| 2026-05-05 17:54 | 52.37596 | 9.30663 | 31908 ft | 414 kts | 191° |
| 2026-05-05 17:54 | 52.34758 | 9.29930 | 32248 ft | 412 kts | 191° |
| 2026-05-05 17:54 | 52.31929 | 9.29193 | 32582 ft | 410 kts | 191° |
| 2026-05-05 17:54 | 52.29116 | 9.28458 | 32905 ft | 409 kts | 191° |
| 2026-05-05 17:55 | 52.26313 | 9.27728 | 33225 ft | 407 kts | 191° |
| 2026-05-05 17:55 | 52.23522 | 9.27006 | 33546 ft | 405 kts | 191° |
| 2026-05-05 17:55 | 52.20737 | 9.26360 | 33860 ft | 404 kts | 189° |
| 2026-05-05 17:55 | 52.17945 | 9.25821 | 34129 ft | 404 kts | 188° |
| 2026-05-05 17:56 | 52.15152 | 9.25343 | 34336 ft | 404 kts | 187° |
| 2026-05-05 17:56 | 52.12353 | 9.24886 | 34536 ft | 405 kts | 187° |
| 2026-05-05 17:56 | 52.09548 | 9.24422 | 34709 ft | 405 kts | 188° |
| 2026-05-05 17:56 | 52.06744 | 9.23944 | 34826 ft | 405 kts | 188° |
| 2026-05-05 17:57 | 52.03956 | 9.23426 | 34847 ft | 402 kts | 189° |
| 2026-05-05 17:57 | 51.98440 | 9.22056 | 34830 ft | 400 kts | 191° |
| 2026-05-05 17:58 | 51.92964 | 9.20500 | 34833 ft | 400 kts | 191° |
| 2026-05-05 17:58 | 51.87467 | 9.19008 | 34819 ft | 401 kts | 190° |
| 2026-05-05 17:59 | 51.81940 | 9.17756 | 34820 ft | 401 kts | 189° |
| 2026-05-05 17:59 | 51.76437 | 9.16635 | 34820 ft | 401 kts | 188° |
| 2026-05-05 18:00 | 51.70899 | 9.15484 | 34817 ft | 401 kts | 189° |
| 2026-05-05 18:00 | 51.65369 | 9.14290 | 34817 ft | 401 kts | 188° |
| 2026-05-05 18:01 | 51.59838 | 9.13084 | 34815 ft | 401 kts | 188° |
| 2026-05-05 18:01 | 51.54305 | 9.11893 | 34810 ft | 401 kts | 188° |
| 2026-05-05 18:02 | 51.48785 | 9.10618 | 34806 ft | 401 kts | 191° |
| 2026-05-05 18:02 | 51.43302 | 9.08804 | 34800 ft | 401 kts | 192° |
| 2026-05-05 18:03 | 51.37882 | 9.06816 | 34800 ft | 401 kts | 192° |
| 2026-05-05 18:03 | 51.32435 | 9.04897 | 34800 ft | 401 kts | 192° |
| 2026-05-05 18:04 | 51.26936 | 9.03415 | 34798 ft | 401 kts | 187° |
| 2026-05-05 18:04 | 51.21387 | 9.02426 | 34795 ft | 401 kts | 185° |
| 2026-05-05 18:05 | 51.15830 | 9.01464 | 34793 ft | 402 kts | 186° |
| 2026-05-05 18:05 | 51.10278 | 9.00392 | 34793 ft | 402 kts | 187° |
| 2026-05-05 18:06 | 51.04721 | 8.99267 | 34797 ft | 403 kts | 187° |
| 2026-05-05 18:06 | 50.99158 | 8.98148 | 34806 ft | 403 kts | 187° |
| 2026-05-05 18:07 | 50.93591 | 8.97035 | 34796 ft | 404 kts | 186° |
| 2026-05-05 18:07 | 50.88014 | 8.95945 | 34802 ft | 404 kts | 186° |
| 2026-05-05 18:08 | 50.82435 | 8.94855 | 34805 ft | 404 kts | 186° |
| 2026-05-05 18:08 | 50.76850 | 8.93764 | 34812 ft | 404 kts | 186° |
| 2026-05-05 18:09 | 50.71268 | 8.92684 | 34813 ft | 404 kts | 186° |
| 2026-05-05 18:09 | 50.65686 | 8.91586 | 34815 ft | 404 kts | 186° |
| 2026-05-05 18:10 | 50.60107 | 8.90486 | 34813 ft | 404 kts | 186° |
| 2026-05-05 18:10 | 50.54532 | 8.89406 | 34812 ft | 404 kts | 186° |
| 2026-05-05 18:11 | 50.48950 | 8.88322 | 34805 ft | 404 kts | 186° |
| 2026-05-05 18:11 | 50.43366 | 8.87243 | 34802 ft | 405 kts | 186° |
| 2026-05-05 18:12 | 50.37768 | 8.86169 | 34802 ft | 405 kts | 186° |
| 2026-05-05 18:12 | 50.32169 | 8.85094 | 34805 ft | 406 kts | 186° |
| 2026-05-05 18:13 | 50.26564 | 8.84016 | 34803 ft | 406 kts | 185° |
| 2026-05-05 18:13 | 50.20945 | 8.82942 | 34800 ft | 407 kts | 185° |
| 2026-05-05 18:14 | 50.15310 | 8.81873 | 34805 ft | 408 kts | 185° |
| 2026-05-05 18:14 | 50.09708 | 8.80806 | 34805 ft | 408 kts | 185° |
| 2026-05-05 18:15 | 50.04067 | 8.79737 | 34803 ft | 409 kts | 185° |
| 2026-05-05 18:15 | 49.98418 | 8.78569 | 34803 ft | 410 kts | 186° |
| 2026-05-05 18:16 | 49.92766 | 8.77347 | 34802 ft | 410 kts | 186° |
| 2026-05-05 18:16 | 49.87114 | 8.76163 | 34821 ft | 410 kts | 186° |
| 2026-05-05 18:17 | 49.81444 | 8.74994 | 34818 ft | 411 kts | 186° |
| 2026-05-05 18:17 | 49.75764 | 8.73827 | 34815 ft | 412 kts | 186° |
| 2026-05-05 18:18 | 49.70075 | 8.72652 | 34814 ft | 413 kts | 186° |
| 2026-05-05 18:18 | 49.64379 | 8.71493 | 34819 ft | 413 kts | 186° |
| 2026-05-05 18:19 | 49.58673 | 8.70351 | 34820 ft | 414 kts | 186° |
| 2026-05-05 18:19 | 49.52964 | 8.69202 | 34820 ft | 414 kts | 186° |
| 2026-05-05 18:20 | 49.47246 | 8.68047 | 34824 ft | 414 kts | 186° |
| 2026-05-05 18:20 | 49.41526 | 8.66905 | 34832 ft | 415 kts | 186° |
| 2026-05-05 18:21 | 49.35800 | 8.65752 | 34828 ft | 415 kts | 186° |
| 2026-05-05 18:21 | 49.30072 | 8.64593 | 34823 ft | 415 kts | 186° |
| 2026-05-05 18:22 | 49.24375 | 8.63450 | 34823 ft | 416 kts | 186° |
| 2026-05-05 18:22 | 49.18644 | 8.62292 | 34822 ft | 416 kts | 187° |
| 2026-05-05 18:23 | 49.12908 | 8.61134 | 34823 ft | 416 kts | 187° |
| 2026-05-05 18:23 | 49.07171 | 8.59982 | 34822 ft | 416 kts | 187° |
| 2026-05-05 18:24 | 49.02364 | 8.59027 | 34821 ft | 416 kts | 187° |
| 2026-05-05 18:24 | 48.96640 | 8.57750 | 34828 ft | 416 kts | 190° |
| 2026-05-05 18:25 | 48.90981 | 8.55923 | 34829 ft | 416 kts | 192° |
| 2026-05-05 18:25 | 48.85382 | 8.53948 | 34828 ft | 416 kts | 192° |
| 2026-05-05 18:26 | 48.79695 | 8.52050 | 34824 ft | 416 kts | 191° |
| 2026-05-05 18:26 | 48.74037 | 8.50237 | 34830 ft | 415 kts | 192° |
| 2026-05-05 18:27 | 48.68418 | 8.48448 | 34835 ft | 415 kts | 192° |
| 2026-05-05 18:27 | 48.62768 | 8.46641 | 34829 ft | 415 kts | 192° |
| 2026-05-05 18:28 | 48.54294 | 8.43927 | 34831 ft | 415 kts | 192° |
| 2026-05-05 18:28 | 48.48646 | 8.42119 | 34836 ft | 415 kts | 192° |
| 2026-05-05 18:29 | 48.43000 | 8.40328 | 34836 ft | 415 kts | 192° |
| 2026-05-05 18:29 | 48.37349 | 8.38547 | 34836 ft | 415 kts | 192° |
| 2026-05-05 18:30 | 48.31703 | 8.36757 | 34841 ft | 415 kts | 192° |
| 2026-05-05 18:30 | 48.26054 | 8.34980 | 34846 ft | 414 kts | 192° |
| 2026-05-05 18:31 | 48.20411 | 8.33200 | 34848 ft | 414 kts | 192° |
| 2026-05-05 18:31 | 48.14698 | 8.32144 | 34850 ft | 416 kts | 180° |
| 2026-05-05 18:32 | 48.08918 | 8.32232 | 34860 ft | 416 kts | 181° |
| 2026-05-05 18:32 | 48.03132 | 8.32312 | 34859 ft | 416 kts | 181° |
| 2026-05-05 18:33 | 47.97394 | 8.32401 | 34871 ft | 415 kts | 181° |
| 2026-05-05 18:33 | 47.91572 | 8.32483 | 34872 ft | 415 kts | 181° |
| 2026-05-05 18:34 | 47.85833 | 8.32566 | 34873 ft | 415 kts | 181° |
| 2026-05-05 18:34 | 47.80056 | 8.32651 | 34881 ft | 415 kts | 181° |
| 2026-05-05 18:35 | 47.74289 | 8.32729 | 34887 ft | 415 kts | 181° |
| 2026-05-05 18:35 | 47.68519 | 8.32806 | 34883 ft | 415 kts | 182° |
| 2026-05-05 18:36 | 47.62751 | 8.32880 | 34888 ft | 414 kts | 182° |
| 2026-05-05 18:36 | 47.56983 | 8.32951 | 34892 ft | 414 kts | 182° |
| 2026-05-05 18:37 | 47.51222 | 8.33030 | 34897 ft | 414 kts | 182° |
| 2026-05-05 18:37 | 47.45448 | 8.33115 | 34899 ft | 415 kts | 182° |
| 2026-05-05 18:38 | 47.39687 | 8.33197 | 34887 ft | 414 kts | 182° |
| 2026-05-05 18:38 | 47.33926 | 8.33285 | 34895 ft | 414 kts | 182° |
| 2026-05-05 18:39 | 47.28171 | 8.33459 | 34902 ft | 415 kts | 180° |
| 2026-05-05 18:39 | 47.22408 | 8.34194 | 34908 ft | 415 kts | 178° |
| 2026-05-05 18:40 | 47.16662 | 8.35136 | 34914 ft | 415 kts | 178° |
| 2026-05-05 18:40 | 47.10915 | 8.35998 | 34917 ft | 415 kts | 178° |
| 2026-05-05 18:41 | 47.05172 | 8.36777 | 34921 ft | 414 kts | 179° |
| 2026-05-05 18:41 | 46.99439 | 8.37543 | 34927 ft | 413 kts | 179° |
| 2026-05-05 18:42 | 46.93721 | 8.38319 | 34928 ft | 412 kts | 179° |
| 2026-05-05 18:42 | 46.88015 | 8.39092 | 34928 ft | 412 kts | 179° |
| 2026-05-05 18:43 | 46.82340 | 8.39861 | 34914 ft | 412 kts | 180° |
| 2026-05-05 18:43 | 46.76624 | 8.40627 | 34912 ft | 413 kts | 180° |
| 2026-05-05 18:44 | 46.70891 | 8.41392 | 34917 ft | 414 kts | 180° |
| 2026-05-05 18:44 | 46.65153 | 8.42166 | 34926 ft | 414 kts | 180° |
| 2026-05-05 18:45 | 46.59420 | 8.42942 | 34945 ft | 414 kts | 180° |
| 2026-05-05 18:45 | 46.53687 | 8.43716 | 34966 ft | 413 kts | 180° |
| 2026-05-05 18:46 | 46.47962 | 8.44480 | 34989 ft | 413 kts | 180° |
| 2026-05-05 18:46 | 46.45100 | 8.44859 | 34506 ft | 412 kts | 180° |
| 2026-05-05 18:46 | 46.42227 | 8.45238 | 33113 ft | 415 kts | 180° |
| 2026-05-05 18:47 | 46.39361 | 8.45618 | 31939 ft | 411 kts | 181° |
| 2026-05-05 18:47 | 46.36533 | 8.45998 | 30980 ft | 404 kts | 181° |
| 2026-05-05 18:47 | 46.33763 | 8.46375 | 30035 ft | 397 kts | 181° |
| 2026-05-05 18:47 | 46.31034 | 8.46743 | 28968 ft | 391 kts | 181° |
| 2026-05-05 18:48 | 46.28349 | 8.47103 | 27871 ft | 385 kts | 180° |
| 2026-05-05 18:48 | 46.25703 | 8.47458 | 26851 ft | 380 kts | 180° |
| 2026-05-05 18:48 | 46.23091 | 8.47821 | 25886 ft | 374 kts | 180° |
| 2026-05-05 18:48 | 46.20514 | 8.48187 | 25013 ft | 369 kts | 179° |
| 2026-05-05 18:49 | 46.18035 | 8.48549 | 24636 ft | 350 kts | 179° |
| 2026-05-05 18:49 | 46.15648 | 8.48899 | 24008 ft | 342 kts | 179° |
| 2026-05-05 18:49 | 46.13259 | 8.49237 | 22702 ft | 350 kts | 179° |
| 2026-05-05 18:49 | 46.10826 | 8.49748 | 21580 ft | 357 kts | 170° |
| 2026-05-05 18:50 | 46.08522 | 8.50914 | 21189 ft | 343 kts | 164° |
| 2026-05-05 18:50 | 46.06347 | 8.52111 | 20747 ft | 327 kts | 165° |
| 2026-05-05 18:50 | 46.04255 | 8.53237 | 20309 ft | 316 kts | 165° |
| 2026-05-05 18:50 | 46.02228 | 8.54318 | 19899 ft | 308 kts | 165° |
| 2026-05-05 18:51 | 46.00208 | 8.55389 | 19494 ft | 311 kts | 165° |
| 2026-05-05 18:51 | 45.98177 | 8.56462 | 19079 ft | 311 kts | 165° |
| 2026-05-05 18:51 | 45.96142 | 8.57538 | 18639 ft | 314 kts | 165° |
| 2026-05-05 18:51 | 45.94041 | 8.58646 | 18007 ft | 325 kts | 164° |
| 2026-05-05 18:52 | 45.91927 | 8.59773 | 17326 ft | 322 kts | 164° |
| 2026-05-05 18:52 | 45.89891 | 8.61035 | 16669 ft | 320 kts | 154° |
| 2026-05-05 18:52 | 45.88074 | 8.62895 | 16024 ft | 320 kts | 145° |
| 2026-05-05 18:52 | 45.86365 | 8.64906 | 15394 ft | 316 kts | 145° |
| 2026-05-05 18:53 | 45.84664 | 8.66890 | 14796 ft | 313 kts | 145° |
| 2026-05-05 18:53 | 45.82988 | 8.68834 | 14386 ft | 309 kts | 145° |
| 2026-05-05 18:53 | 45.81310 | 8.70773 | 14034 ft | 310 kts | 145° |
| 2026-05-05 18:53 | 45.79633 | 8.72710 | 13663 ft | 309 kts | 145° |
| 2026-05-05 18:54 | 45.77959 | 8.74641 | 13254 ft | 308 kts | 145° |
| 2026-05-05 18:54 | 45.76262 | 8.76497 | 12862 ft | 305 kts | 152° |
| 2026-05-05 18:54 | 45.74421 | 8.77961 | 12570 ft | 299 kts | 155° |
| 2026-05-05 18:54 | 45.72602 | 8.79363 | 12303 ft | 295 kts | 155° |
| 2026-05-05 18:55 | 45.70805 | 8.80746 | 11960 ft | 293 kts | 155° |
| 2026-05-05 18:55 | 45.69016 | 8.82124 | 11611 ft | 291 kts | 155° |
| 2026-05-05 18:55 | 45.67239 | 8.83491 | 11266 ft | 289 kts | 155° |
| 2026-05-05 18:55 | 45.65477 | 8.84843 | 11008 ft | 284 kts | 155° |
| 2026-05-05 18:56 | 45.63790 | 8.86138 | 10798 ft | 268 kts | 155° |
| 2026-05-05 18:56 | 45.62158 | 8.87351 | 10343 ft | 261 kts | 160° |
| 2026-05-05 18:56 | 45.60442 | 8.88053 | 9973 ft | 255 kts | 172° |
| 2026-05-05 18:56 | 45.58691 | 8.88514 | 9799 ft | 257 kts | 172° |
| 2026-05-05 18:57 | 45.56936 | 8.88989 | 9668 ft | 256 kts | 171° |
| 2026-05-05 18:57 | 45.55187 | 8.89467 | 9529 ft | 256 kts | 171° |
| 2026-05-05 18:57 | 45.53446 | 8.89945 | 9397 ft | 255 kts | 171° |
| 2026-05-05 18:57 | 45.51691 | 8.90426 | 9179 ft | 255 kts | 171° |
| 2026-05-05 18:58 | 45.49992 | 8.90892 | 8839 ft | 251 kts | 171° |
| 2026-05-05 18:58 | 45.48319 | 8.91347 | 8439 ft | 241 kts | 171° |
| 2026-05-05 18:58 | 45.46681 | 8.91791 | 7909 ft | 238 kts | 171° |
| 2026-05-05 18:58 | 45.45063 | 8.92227 | 7371 ft | 236 kts | 171° |
| 2026-05-05 18:59 | 45.43455 | 8.92662 | 6808 ft | 234 kts | 172° |
| 2026-05-05 18:59 | 45.41807 | 8.92576 | 5863 ft | 245 kts | 199° |
| 2026-05-05 18:59 | 45.40367 | 8.91237 | 4984 ft | 254 kts | 231° |
| 2026-05-05 18:59 | 45.39616 | 8.89067 | 4802 ft | 240 kts | 251° |
| 2026-05-05 19:00 | 45.39157 | 8.86840 | 4600 ft | 232 kts | 253° |
| 2026-05-05 19:00 | 45.38924 | 8.84585 | 4245 ft | 232 kts | 272° |
| 2026-05-05 19:00 | 45.39305 | 8.82370 | 4035 ft | 232 kts | 295° |
| 2026-05-05 19:00 | 45.40265 | 8.80513 | 4034 ft | 237 kts | 317° |
| 2026-05-05 19:01 | 45.41669 | 8.79295 | 4034 ft | 238 kts | 341° |
| 2026-05-05 19:01 | 45.43265 | 8.78777 | 4020 ft | 228 kts | 349° |
| 2026-05-05 19:01 | 45.44755 | 8.78375 | 3985 ft | 214 kts | 349° |
| 2026-05-05 19:01 | 45.46203 | 8.77980 | 3783 ft | 209 kts | 349° |
| 2026-05-05 19:02 | 45.47628 | 8.77589 | 3523 ft | 208 kts | 349° |
| 2026-05-05 19:02 | 45.49026 | 8.77205 | 3255 ft | 201 kts | 349° |
| 2026-05-05 19:02 | 45.50376 | 8.76834 | 3025 ft | 193 kts | 350° |
| 2026-05-05 19:02 | 45.51657 | 8.76482 | 2735 ft | 182 kts | 351° |
| 2026-05-05 19:03 | 45.52857 | 8.76151 | 2498 ft | 169 kts | 351° |
| 2026-05-05 19:03 | 45.53972 | 8.75844 | 2272 ft | 159 kts | 351° |
| 2026-05-05 19:03 | 45.55043 | 8.75549 | 2068 ft | 154 kts | 351° |
| 2026-05-05 19:03 | 45.56091 | 8.75261 | 1857 ft | 153 kts | 351° |
| 2026-05-05 19:04 | 45.57127 | 8.74976 | 1653 ft | 151 kts | 351° |
| 2026-05-05 19:04 | 45.58139 | 8.74697 | 1439 ft | 149 kts | 350° |
| 2026-05-05 19:04 | 45.59146 | 8.74426 | 1266 ft | 147 kts | 349° |
| 2026-05-05 19:04 | 45.60146 | 8.74145 | 1030 ft | 145 kts | 348° |
| 2026-05-05 19:05 | 45.61128 | 8.73874 | 850 ft | 144 kts | 348° |
| 2026-05-05 19:05 | 45.62095 | 8.73607 | 746 ft | 132 kts | 349° |
| 2026-05-05 19:05 | 45.62783 | 8.73415 | 745 ft | 60 kts | 348° |
| 2026-05-05 19:05 | 45.63060 | 8.73313 | 743 ft | 37 kts | 335° |
| 2026-05-05 19:06 | 45.63245 | 8.73102 | 747 ft | 32 kts | 308° |
| 2026-05-05 19:06 | 45.63334 | 8.72900 | 750 ft | 12 kts | 309° |
| 2026-05-05 19:06 | 45.63371 | 8.72828 | 751 ft | 8 kts | 303° |
| 2026-05-05 19:06 | 45.63392 | 8.72758 | 749 ft | 7 kts | 286° |
| 2026-05-05 19:07 | 45.63403 | 8.72654 | 749 ft | 14 kts | 272° |
| 2026-05-05 19:07 | 45.63394 | 8.72547 | 750 ft | 18 kts | 259° |
| 2026-05-05 19:07 | 45.63359 | 8.72289 | 744 ft | 22 kts | 259° |
| 2026-05-05 19:07 | 45.63340 | 8.72146 | 746 ft | 3 kts | 258° |
| 2026-05-05 19:08 | 45.63340 | 8.72145 | 746 ft | 0 kts | 258° |
| 2026-05-05 19:08 | 45.63338 | 8.72133 | 747 ft | 4 kts | 258° |
| 2026-05-05 19:08 | 45.63331 | 8.72074 | 746 ft | 8 kts | 260° |
| 2026-05-05 19:08 | 45.63321 | 8.72004 | 750 ft | 1 kts | 258° |
| 2026-05-05 19:09 | 45.63320 | 8.71999 | 751 ft | 1 kts | 246° |
| 2026-05-05 19:09 | 45.63297 | 8.71982 | 749 ft | 6 kts | 198° |
| 2026-05-05 19:10 | 45.63237 | 8.71982 | 749 ft | 11 kts | 175° |
| 2026-05-05 19:10 | 45.63183 | 8.71995 | 749 ft | 13 kts | 169° |
| 2026-05-05 19:10 | 45.63086 | 8.72024 | 748 ft | 16 kts | 167° |
| 2026-05-05 19:10 | 45.62971 | 8.72057 | 752 ft | 18 kts | 168° |
| 2026-05-05 19:11 | 45.62831 | 8.72095 | 751 ft | 23 kts | 169° |
| 2026-05-05 19:11 | 45.62662 | 8.72141 | 750 ft | 27 kts | 169° |
| 2026-05-05 19:11 | 45.62489 | 8.72187 | 752 ft | 24 kts | 170° |
| 2026-05-05 19:11 | 45.62400 | 8.72194 | 752 ft | 10 kts | 199° |
| 2026-05-05 19:12 | 45.62360 | 8.72080 | 752 ft | 17 kts | 258° |
| 2026-05-05 19:12 | 45.62334 | 8.71885 | 751 ft | 22 kts | 259° |
| 2026-05-05 19:12 | 45.62313 | 8.71735 | 753 ft | 11 kts | 259° |
| 2026-05-05 19:12 | 45.62311 | 8.71718 | 753 ft | 0 kts | 259° |
| 2026-05-05 19:13 | 45.62311 | 8.71690 | 753 ft | 6 kts | 284° |
| 2026-05-05 19:13 | 45.62354 | 8.71663 | 753 ft | 5 kts | 348° |
| 2026-05-05 19:13 | 45.62378 | 8.71656 | 752 ft | 2 kts | 351° |
| 2026-05-05 19:14 | 45.62381 | 8.71655 | 752 ft | 0 kts | 349° |